Ana Sayfa
METAR-TAF:

METAR-TAF

Havaalanları :

Hanover County Municipal Airport

Richmond / Ashland, Virginia, Amerika Birleşik Devletleri

Enlem: 37-42-29N, Boylam: 077-26-04W, yükseklik: 62 m

Güncel hava durumu gözlemi

Rapor saat 16:54 UTC de 1 saat ve 0 dakika önce yapıldı.
Rüzgar batıdan 9 kt
Sıcaklık 8°C
Nem 42%
Basınç 1021 hPa
Görüş mesafesi: 16.1 km
Açık gökyüzü

METAR: KOFP 021654Z AUTO 28009KT 10SM CLR 08/M04 A3016 RMK AO2 SLP214 T00781039

Saat: 12:54 (17:54 UTC)


TAF: eksik

4.000'den fazla havaalanı için hava durumu gözlemleri ve tahminleri (METAR ve TAF raporları).

Kullanılabilir istasyonlar harita üzerinde sarı ve kırmızı noktalarla gösterilir.

İstasyonun adını görmek için fareyi noktanın üzerinde gezdirin.

Sonrasında hava gözlem ve tahminlerini görmek için tıklayın.

Haritayı değiştirmek için: yaklaştırmak için siyah artı işaretli yeşil düğmeye ve uzaklaştırmak için de eksi işaretli düğmeye hızla tıklayın; bitişik haritalar için yeşil okları kullanın.


METAR-TAF: